Shawbury (EGOS)

METAR

EGOS 170250Z AUTO 27006KT 9999 FEW060/// 11/10 Q1016

QNH
1016
TEMP
11 °C
TAF

TAF TAF EGOS 171634Z 1718/1821 CNL